sensor_id;sensor_type;location;lat;lon;timestamp;pressure;altitude;pressure_sealevel;temperature;humidity
692;BME280;70475;50.084;8.576;2023-06-14T00:02:01;100321.50;;;19.25;43.53
692;BME280;70475;50.084;8.576;2023-06-14T00:04:29;100324.13;;;19.20;43.38
692;BME280;70475;50.084;8.576;2023-06-14T00:06:57;100325.19;;;19.19;43.74
692;BME280;70475;50.084;8.576;2023-06-14T00:09:25;100317.91;;;19.20;43.88
692;BME280;70475;50.084;8.576;2023-06-14T00:11:53;100330.59;;;19.19;43.47
692;BME280;70475;50.084;8.576;2023-06-14T00:14:22;100331.56;;;19.13;43.75
692;BME280;70475;50.084;8.576;2023-06-14T00:16:50;100325.28;;;19.08;43.88
692;BME280;70475;50.084;8.576;2023-06-14T00:19:19;100330.84;;;19.01;44.01
692;BME280;70475;50.084;8.576;2023-06-14T00:21:47;100328.06;;;18.96;44.19
692;BME280;70475;50.084;8.576;2023-06-14T00:24:15;100332.34;;;18.92;44.29
692;BME280;70475;50.084;8.576;2023-06-14T00:26:43;100329.06;;;18.90;44.57
692;BME280;70475;50.084;8.576;2023-06-14T00:29:10;100334.44;;;18.90;44.41
692;BME280;70475;50.084;8.576;2023-06-14T00:31:39;100332.16;;;18.82;44.52
692;BME280;70475;50.084;8.576;2023-06-14T00:34:07;100332.72;;;18.84;44.48
692;BME280;70475;50.084;8.576;2023-06-14T00:36:35;100332.81;;;18.73;44.58
692;BME280;70475;50.084;8.576;2023-06-14T00:39:03;100334.63;;;18.67;44.97
692;BME280;70475;50.084;8.576;2023-06-14T00:41:30;100330.75;;;18.63;45.04
692;BME280;70475;50.084;8.576;2023-06-14T00:43:58;100337.38;;;18.72;44.98
692;BME280;70475;50.084;8.576;2023-06-14T00:46:26;100329.78;;;18.69;44.64
692;BME280;70475;50.084;8.576;2023-06-14T00:48:56;100328.03;;;18.63;44.66
692;BME280;70475;50.084;8.576;2023-06-14T00:51:23;100325.75;;;18.55;44.93
692;BME280;70475;50.084;8.576;2023-06-14T00:53:51;100324.69;;;18.56;44.71
692;BME280;70475;50.084;8.576;2023-06-14T00:56:19;100324.75;;;18.45;45.24
692;BME280;70475;50.084;8.576;2023-06-14T00:58:47;100326.00;;;18.54;45.07
692;BME280;70475;50.084;8.576;2023-06-14T01:01:15;100329.81;;;18.41;45.12
692;BME280;70475;50.084;8.576;2023-06-14T01:03:43;100328.03;;;18.47;45.40
692;BME280;70475;50.084;8.576;2023-06-14T01:06:19;100326.88;;;18.42;45.00
692;BME280;70475;50.084;8.576;2023-06-14T01:09:01;100324.41;;;18.41;45.16
692;BME280;70475;50.084;8.576;2023-06-14T01:11:33;100335.81;;;18.31;45.44
692;BME280;70475;50.084;8.576;2023-06-14T01:14:04;100328.28;;;18.33;45.24
692;BME280;70475;50.084;8.576;2023-06-14T01:16:32;100331.41;;;18.25;45.46
692;BME280;70475;50.084;8.576;2023-06-14T01:19:03;100328.34;;;18.22;45.71
692;BME280;70475;50.084;8.576;2023-06-14T01:21:32;100329.97;;;18.23;45.32
692;BME280;70475;50.084;8.576;2023-06-14T01:24:09;100326.25;;;18.24;45.25
692;BME280;70475;50.084;8.576;2023-06-14T01:26:38;100333.31;;;18.13;45.63
692;BME280;70475;50.084;8.576;2023-06-14T01:29:13;100324.59;;;18.23;45.84
692;BME280;70475;50.084;8.576;2023-06-14T01:31:44;100322.56;;;18.30;45.59
692;BME280;70475;50.084;8.576;2023-06-14T01:34:12;100328.34;;;18.22;45.64
692;BME280;70475;50.084;8.576;2023-06-14T01:36:41;100330.25;;;18.21;45.40
692;BME280;70475;50.084;8.576;2023-06-14T01:39:14;100327.81;;;18.08;45.63
692;BME280;70475;50.084;8.576;2023-06-14T01:41:42;100325.94;;;18.09;45.52
692;BME280;70475;50.084;8.576;2023-06-14T01:44:12;100336.47;;;18.10;45.43
692;BME280;70475;50.084;8.576;2023-06-14T01:46:40;100326.78;;;18.09;45.47
692;BME280;70475;50.084;8.576;2023-06-14T01:49:10;100324.00;;;17.93;45.94
692;BME280;70475;50.084;8.576;2023-06-14T01:51:38;100329.84;;;18.01;45.78
692;BME280;70475;50.084;8.576;2023-06-14T01:54:05;100335.09;;;18.08;45.33
692;BME280;70475;50.084;8.576;2023-06-14T01:56:34;100333.34;;;18.02;45.37
692;BME280;70475;50.084;8.576;2023-06-14T01:59:02;100330.66;;;18.02;45.76
692;BME280;70475;50.084;8.576;2023-06-14T02:01:29;100326.31;;;18.01;45.46
692;BME280;70475;50.084;8.576;2023-06-14T02:03:57;100321.91;;;17.95;45.64
692;BME280;70475;50.084;8.576;2023-06-14T02:06:26;100328.09;;;17.95;45.70
692;BME280;70475;50.084;8.576;2023-06-14T02:08:54;100328.72;;;17.74;46.23
692;BME280;70475;50.084;8.576;2023-06-14T02:11:21;100325.47;;;17.72;46.37
692;BME280;70475;50.084;8.576;2023-06-14T02:13:50;100327.66;;;17.87;45.74
692;BME280;70475;50.084;8.576;2023-06-14T02:16:18;100326.03;;;17.86;45.88
692;BME280;70475;50.084;8.576;2023-06-14T02:18:45;100332.22;;;17.86;45.99
692;BME280;70475;50.084;8.576;2023-06-14T02:21:13;100331.91;;;17.83;45.60
692;BME280;70475;50.084;8.576;2023-06-14T02:23:41;100333.63;;;17.77;45.99
692;BME280;70475;50.084;8.576;2023-06-14T02:26:08;100334.47;;;17.78;45.81
692;BME280;70475;50.084;8.576;2023-06-14T02:28:36;100330.72;;;17.79;45.78
692;BME280;70475;50.084;8.576;2023-06-14T02:31:05;100336.56;;;17.76;45.58
692;BME280;70475;50.084;8.576;2023-06-14T02:33:32;100342.66;;;17.71;46.06
692;BME280;70475;50.084;8.576;2023-06-14T02:36:01;100339.19;;;17.71;45.77
692;BME280;70475;50.084;8.576;2023-06-14T02:38:29;100341.53;;;17.67;45.98
692;BME280;70475;50.084;8.576;2023-06-14T02:40:57;100338.72;;;17.74;45.64
692;BME280;70475;50.084;8.576;2023-06-14T02:43:25;100345.25;;;17.78;45.42
692;BME280;70475;50.084;8.576;2023-06-14T02:45:53;100346.44;;;17.70;45.79
692;BME280;70475;50.084;8.576;2023-06-14T02:48:22;100343.41;;;17.67;45.88
692;BME280;70475;50.084;8.576;2023-06-14T02:50:49;100348.69;;;17.62;46.19
692;BME280;70475;50.084;8.576;2023-06-14T02:53:17;100351.47;;;17.55;46.43
692;BME280;70475;50.084;8.576;2023-06-14T02:55:45;100352.31;;;17.56;46.60
692;BME280;70475;50.084;8.576;2023-06-14T02:58:13;100351.94;;;17.52;46.94
692;BME280;70475;50.084;8.576;2023-06-14T03:00:40;100353.50;;;17.48;46.98
692;BME280;70475;50.084;8.576;2023-06-14T03:03:08;100353.41;;;17.43;47.57
692;BME280;70475;50.084;8.576;2023-06-14T03:05:44;100363.34;;;17.43;47.74
692;BME280;70475;50.084;8.576;2023-06-14T03:08:13;100360.47;;;17.38;47.92
692;BME280;70475;50.084;8.576;2023-06-14T03:10:43;100370.19;;;17.27;47.90
692;BME280;70475;50.084;8.576;2023-06-14T03:13:11;100364.94;;;17.21;48.39
692;BME280;70475;50.084;8.576;2023-06-14T03:15:38;100375.34;;;17.17;48.55
692;BME280;70475;50.084;8.576;2023-06-14T03:18:07;100372.31;;;17.14;48.36
692;BME280;70475;50.084;8.576;2023-06-14T03:20:35;100376.72;;;17.08;48.60
692;BME280;70475;50.084;8.576;2023-06-14T03:23:04;100382.13;;;17.08;48.69
692;BME280;70475;50.084;8.576;2023-06-14T03:25:32;100383.41;;;17.06;48.64
692;BME280;70475;50.084;8.576;2023-06-14T03:28:01;100387.97;;;17.05;48.73
692;BME280;70475;50.084;8.576;2023-06-14T03:30:29;100389.72;;;17.00;49.12
692;BME280;70475;50.084;8.576;2023-06-14T03:32:57;100387.03;;;17.00;48.98
692;BME280;70475;50.084;8.576;2023-06-14T03:35:28;100390.06;;;16.92;49.40
692;BME280;70475;50.084;8.576;2023-06-14T03:37:55;100391.69;;;16.93;49.35
692;BME280;70475;50.084;8.576;2023-06-14T03:40:24;100397.78;;;16.88;49.22
692;BME280;70475;50.084;8.576;2023-06-14T03:42:53;100404.53;;;16.79;49.49
692;BME280;70475;50.084;8.576;2023-06-14T03:45:21;100402.66;;;16.80;50.10
692;BME280;70475;50.084;8.576;2023-06-14T03:47:49;100403.25;;;16.82;49.66
692;BME280;70475;50.084;8.576;2023-06-14T03:50:17;100407.91;;;16.75;50.13
692;BME280;70475;50.084;8.576;2023-06-14T03:52:46;100414.78;;;16.71;50.07
692;BME280;70475;50.084;8.576;2023-06-14T03:55:15;100405.41;;;16.62;50.21
692;BME280;70475;50.084;8.576;2023-06-14T03:57:47;100407.03;;;16.63;50.61
692;BME280;70475;50.084;8.576;2023-06-14T04:00:15;100413.47;;;16.62;50.65
692;BME280;70475;50.084;8.576;2023-06-14T04:02:42;100422.94;;;16.64;50.58
692;BME280;70475;50.084;8.576;2023-06-14T04:05:11;100424.00;;;16.63;50.63
692;BME280;70475;50.084;8.576;2023-06-14T04:07:40;100423.19;;;16.63;50.21
692;BME280;70475;50.084;8.576;2023-06-14T04:10:12;100428.44;;;16.58;50.61
692;BME280;70475;50.084;8.576;2023-06-14T04:12:40;100431.25;;;16.63;50.64
692;BME280;70475;50.084;8.576;2023-06-14T04:15:11;100432.53;;;16.60;50.79
692;BME280;70475;50.084;8.576;2023-06-14T04:17:47;100433.44;;;16.54;51.14
692;BME280;70475;50.084;8.576;2023-06-14T04:20:14;100433.13;;;16.62;51.01
692;BME280;70475;50.084;8.576;2023-06-14T04:22:43;100435.53;;;16.52;51.26
692;BME280;70475;50.084;8.576;2023-06-14T04:25:10;100434.84;;;16.57;51.05
692;BME280;70475;50.084;8.576;2023-06-14T04:27:38;100440.22;;;16.57;51.59
692;BME280;70475;50.084;8.576;2023-06-14T04:30:07;100443.34;;;16.54;51.17
692;BME280;70475;50.084;8.576;2023-06-14T04:32:36;100439.41;;;16.56;51.82
692;BME280;70475;50.084;8.576;2023-06-14T04:35:06;100445.59;;;16.57;51.24
692;BME280;70475;50.084;8.576;2023-06-14T04:37:34;100445.81;;;16.55;51.52
692;BME280;70475;50.084;8.576;2023-06-14T04:40:07;100448.59;;;16.67;51.44
692;BME280;70475;50.084;8.576;2023-06-14T04:42:38;100440.75;;;16.65;51.72
692;BME280;70475;50.084;8.576;2023-06-14T04:45:07;100444.00;;;16.67;51.45
692;BME280;70475;50.084;8.576;2023-06-14T04:47:37;100442.72;;;16.70;51.97
692;BME280;70475;50.084;8.576;2023-06-14T04:50:05;100452.69;;;16.69;52.00
692;BME280;70475;50.084;8.576;2023-06-14T04:52:33;100448.59;;;16.67;52.02
692;BME280;70475;50.084;8.576;2023-06-14T04:55:01;100444.94;;;16.73;51.65
692;BME280;70475;50.084;8.576;2023-06-14T04:57:29;100451.31;;;16.78;51.86
692;BME280;70475;50.084;8.576;2023-06-14T04:59:56;100457.41;;;16.85;51.83
692;BME280;70475;50.084;8.576;2023-06-14T05:02:27;100463.63;;;16.86;51.84
692;BME280;70475;50.084;8.576;2023-06-14T05:04:58;100466.66;;;16.89;51.47
692;BME280;70475;50.084;8.576;2023-06-14T05:07:28;100470.06;;;16.96;51.71
692;BME280;70475;50.084;8.576;2023-06-14T05:09:55;100460.16;;;17.08;51.41
692;BME280;70475;50.084;8.576;2023-06-14T05:12:23;100459.34;;;17.08;51.48
692;BME280;70475;50.084;8.576;2023-06-14T05:14:50;100459.00;;;17.16;51.02
692;BME280;70475;50.084;8.576;2023-06-14T05:17:18;100460.19;;;17.20;50.95
692;BME280;70475;50.084;8.576;2023-06-14T05:19:47;100465.84;;;17.30;51.06
692;BME280;70475;50.084;8.576;2023-06-14T05:22:15;100463.25;;;17.35;50.54
692;BME280;70475;50.084;8.576;2023-06-14T05:24:43;100470.81;;;17.44;50.36
692;BME280;70475;50.084;8.576;2023-06-14T05:27:10;100468.94;;;17.45;50.52
692;BME280;70475;50.084;8.576;2023-06-14T05:29:39;100471.75;;;17.50;50.39
692;BME280;70475;50.084;8.576;2023-06-14T05:32:07;100477.81;;;17.57;50.30
692;BME280;70475;50.084;8.576;2023-06-14T05:34:35;100479.72;;;17.68;50.16
692;BME280;70475;50.084;8.576;2023-06-14T05:37:02;100477.84;;;17.68;49.94
692;BME280;70475;50.084;8.576;2023-06-14T05:39:32;100475.84;;;17.75;49.58
692;BME280;70475;50.084;8.576;2023-06-14T05:42:00;100475.72;;;17.82;49.31
692;BME280;70475;50.084;8.576;2023-06-14T05:44:27;100488.03;;;17.89;49.14
692;BME280;70475;50.084;8.576;2023-06-14T05:46:55;100485.09;;;17.91;48.80
692;BME280;70475;50.084;8.576;2023-06-14T05:49:22;100486.28;;;17.95;49.21
692;BME280;70475;50.084;8.576;2023-06-14T05:51:50;100486.63;;;17.98;48.66
692;BME280;70475;50.084;8.576;2023-06-14T05:54:17;100483.34;;;18.08;48.77
692;BME280;70475;50.084;8.576;2023-06-14T05:56:47;100490.47;;;18.14;48.39
692;BME280;70475;50.084;8.576;2023-06-14T05:59:14;100485.41;;;18.17;48.79
692;BME280;70475;50.084;8.576;2023-06-14T06:01:42;100496.09;;;18.24;48.26
692;BME280;70475;50.084;8.576;2023-06-14T06:04:10;100498.31;;;18.27;48.10
692;BME280;70475;50.084;8.576;2023-06-14T06:06:37;100507.47;;;18.14;48.38
692;BME280;70475;50.084;8.576;2023-06-14T06:09:06;100508.75;;;18.12;48.55
692;BME280;70475;50.084;8.576;2023-06-14T06:11:34;100517.91;;;18.11;49.13
692;BME280;70475;50.084;8.576;2023-06-14T06:14:19;100519.66;;;18.17;49.19
692;BME280;70475;50.084;8.576;2023-06-14T06:16:47;100515.19;;;18.22;48.62
692;BME280;70475;50.084;8.576;2023-06-14T06:19:14;100531.69;;;18.26;49.11
692;BME280;70475;50.084;8.576;2023-06-14T06:21:42;100521.88;;;18.20;49.62
692;BME280;70475;50.084;8.576;2023-06-14T06:24:09;100525.38;;;18.32;49.49
692;BME280;70475;50.084;8.576;2023-06-14T06:26:37;100515.28;;;18.27;49.06
692;BME280;70475;50.084;8.576;2023-06-14T06:29:06;100518.34;;;18.31;49.18
692;BME280;70475;50.084;8.576;2023-06-14T06:31:35;100519.72;;;18.33;48.94
692;BME280;70475;50.084;8.576;2023-06-14T06:34:02;100516.25;;;18.33;48.92
692;BME280;70475;50.084;8.576;2023-06-14T06:36:30;100521.16;;;18.36;49.33
692;BME280;70475;50.084;8.576;2023-06-14T06:38:57;100515.31;;;18.39;49.64
692;BME280;70475;50.084;8.576;2023-06-14T06:41:25;100524.44;;;18.38;49.16
692;BME280;70475;50.084;8.576;2023-06-14T06:43:53;100521.00;;;18.54;49.65
692;BME280;70475;50.084;8.576;2023-06-14T06:46:23;100518.53;;;18.64;49.59
692;BME280;70475;50.084;8.576;2023-06-14T06:48:52;100528.47;;;18.75;48.48
692;BME280;70475;50.084;8.576;2023-06-14T06:51:20;100519.53;;;18.75;47.71
692;BME280;70475;50.084;8.576;2023-06-14T06:53:52;100530.69;;;18.78;47.53
692;BME280;70475;50.084;8.576;2023-06-14T06:56:21;100523.06;;;18.75;47.65
692;BME280;70475;50.084;8.576;2023-06-14T06:58:49;100540.88;;;18.88;47.64
692;BME280;70475;50.084;8.576;2023-06-14T07:01:17;100534.41;;;18.89;47.29
692;BME280;70475;50.084;8.576;2023-06-14T07:03:46;100537.59;;;18.86;47.32
692;BME280;70475;50.084;8.576;2023-06-14T07:06:15;100532.13;;;18.97;47.45
692;BME280;70475;50.084;8.576;2023-06-14T07:08:44;100535.72;;;19.14;47.27
692;BME280;70475;50.084;8.576;2023-06-14T07:11:14;100534.28;;;19.23;47.29
692;BME280;70475;50.084;8.576;2023-06-14T07:13:42;100536.44;;;19.38;46.78
692;BME280;70475;50.084;8.576;2023-06-14T07:16:09;100538.06;;;19.39;46.56
692;BME280;70475;50.084;8.576;2023-06-14T07:18:37;100539.88;;;19.33;46.25
692;BME280;70475;50.084;8.576;2023-06-14T07:21:04;100539.63;;;19.35;46.62
692;BME280;70475;50.084;8.576;2023-06-14T07:23:33;100537.09;;;19.45;46.79
692;BME280;70475;50.084;8.576;2023-06-14T07:26:01;100537.28;;;19.55;46.81
692;BME280;70475;50.084;8.576;2023-06-14T07:28:29;100536.94;;;19.68;47.18
692;BME280;70475;50.084;8.576;2023-06-14T07:30:56;100537.88;;;19.73;47.08
692;BME280;70475;50.084;8.576;2023-06-14T07:33:24;100535.63;;;19.87;46.85
692;BME280;70475;50.084;8.576;2023-06-14T07:35:52;100547.66;;;19.79;44.94
692;BME280;70475;50.084;8.576;2023-06-14T07:38:19;100547.75;;;19.84;44.74
692;BME280;70475;50.084;8.576;2023-06-14T07:40:48;100547.28;;;19.87;43.95
692;BME280;70475;50.084;8.576;2023-06-14T07:43:16;100544.56;;;19.87;43.88
692;BME280;70475;50.084;8.576;2023-06-14T07:45:44;100537.59;;;19.91;44.16
692;BME280;70475;50.084;8.576;2023-06-14T07:48:31;100536.69;;;20.02;44.34
692;BME280;70475;50.084;8.576;2023-06-14T07:50:59;100537.94;;;19.95;45.86
692;BME280;70475;50.084;8.576;2023-06-14T07:53:27;100538.56;;;19.85;46.30
692;BME280;70475;50.084;8.576;2023-06-14T07:55:56;100531.88;;;19.88;46.01
692;BME280;70475;50.084;8.576;2023-06-14T07:58:24;100535.13;;;19.90;46.25
692;BME280;70475;50.084;8.576;2023-06-14T08:00:51;100544.91;;;19.91;45.97
692;BME280;70475;50.084;8.576;2023-06-14T08:03:21;100549.22;;;19.92;45.14
692;BME280;70475;50.084;8.576;2023-06-14T08:05:49;100544.72;;;19.97;45.27
692;BME280;70475;50.084;8.576;2023-06-14T08:08:17;100549.78;;;20.10;44.92
692;BME280;70475;50.084;8.576;2023-06-14T08:10:44;100545.44;;;20.09;43.65
692;BME280;70475;50.084;8.576;2023-06-14T08:13:13;100543.75;;;20.20;44.23
692;BME280;70475;50.084;8.576;2023-06-14T08:15:41;100556.63;;;20.13;43.69
692;BME280;70475;50.084;8.576;2023-06-14T08:18:08;100560.97;;;20.14;43.96
692;BME280;70475;50.084;8.576;2023-06-14T08:20:36;100551.84;;;20.03;44.89
692;BME280;70475;50.084;8.576;2023-06-14T08:23:04;100555.88;;;20.17;45.49
692;BME280;70475;50.084;8.576;2023-06-14T08:25:31;100549.00;;;20.26;45.54
692;BME280;70475;50.084;8.576;2023-06-14T08:27:59;100543.72;;;20.37;45.39
692;BME280;70475;50.084;8.576;2023-06-14T08:30:28;100544.41;;;20.49;45.42
692;BME280;70475;50.084;8.576;2023-06-14T08:32:55;100550.25;;;20.41;45.21
692;BME280;70475;50.084;8.576;2023-06-14T08:35:41;100555.09;;;20.38;43.97
692;BME280;70475;50.084;8.576;2023-06-14T08:38:10;100556.41;;;20.58;43.60
692;BME280;70475;50.084;8.576;2023-06-14T08:40:39;100551.63;;;20.43;42.57
692;BME280;70475;50.084;8.576;2023-06-14T08:43:08;100549.63;;;20.55;43.10
692;BME280;70475;50.084;8.576;2023-06-14T08:45:38;100539.13;;;20.59;43.02
692;BME280;70475;50.084;8.576;2023-06-14T08:48:07;100555.88;;;20.56;42.55
692;BME280;70475;50.084;8.576;2023-06-14T08:50:36;100557.38;;;20.47;42.83
692;BME280;70475;50.084;8.576;2023-06-14T08:53:08;100564.91;;;20.45;42.76
692;BME280;70475;50.084;8.576;2023-06-14T08:55:39;100555.88;;;20.56;43.05
692;BME280;70475;50.084;8.576;2023-06-14T08:58:09;100558.13;;;20.64;42.56
692;BME280;70475;50.084;8.576;2023-06-14T09:00:42;100557.44;;;20.73;42.60
692;BME280;70475;50.084;8.576;2023-06-14T09:03:11;100556.72;;;20.83;42.22
692;BME280;70475;50.084;8.576;2023-06-14T09:05:41;100551.47;;;20.93;42.57
692;BME280;70475;50.084;8.576;2023-06-14T09:08:09;100559.97;;;21.01;42.79
692;BME280;70475;50.084;8.576;2023-06-14T09:10:37;100567.56;;;20.83;42.17
692;BME280;70475;50.084;8.576;2023-06-14T09:13:05;100562.81;;;20.90;42.26
692;BME280;70475;50.084;8.576;2023-06-14T09:15:33;100561.91;;;20.84;42.11
692;BME280;70475;50.084;8.576;2023-06-14T09:18:03;100558.91;;;20.81;41.84
692;BME280;70475;50.084;8.576;2023-06-14T09:20:32;100554.94;;;20.88;42.58
692;BME280;70475;50.084;8.576;2023-06-14T09:23:00;100558.91;;;21.02;42.35
692;BME280;70475;50.084;8.576;2023-06-14T09:25:28;100566.13;;;21.18;42.30
692;BME280;70475;50.084;8.576;2023-06-14T09:28:06;100557.53;;;21.00;41.74
692;BME280;70475;50.084;8.576;2023-06-14T09:30:36;100562.53;;;21.13;42.05
692;BME280;70475;50.084;8.576;2023-06-14T09:33:05;100572.44;;;21.24;42.21
692;BME280;70475;50.084;8.576;2023-06-14T09:35:33;100573.38;;;21.13;41.25
692;BME280;70475;50.084;8.576;2023-06-14T09:38:02;100572.88;;;21.16;42.09
692;BME280;70475;50.084;8.576;2023-06-14T09:40:34;100569.66;;;21.19;41.28
692;BME280;70475;50.084;8.576;2023-06-14T09:43:04;100573.38;;;21.13;40.98
692;BME280;70475;50.084;8.576;2023-06-14T09:45:33;100565.19;;;21.08;41.43
692;BME280;70475;50.084;8.576;2023-06-14T09:48:02;100576.84;;;21.35;40.97
692;BME280;70475;50.084;8.576;2023-06-14T09:50:35;100577.38;;;21.32;39.52
692;BME280;70475;50.084;8.576;2023-06-14T09:53:05;100589.06;;;21.37;39.08
692;BME280;70475;50.084;8.576;2023-06-14T09:55:34;100573.53;;;21.28;39.65
692;BME280;70475;50.084;8.576;2023-06-14T09:58:05;100578.09;;;21.49;40.23
692;BME280;70475;50.084;8.576;2023-06-14T10:00:35;100567.34;;;21.59;39.61
692;BME280;70475;50.084;8.576;2023-06-14T10:03:06;100570.25;;;21.52;39.78
692;BME280;70475;50.084;8.576;2023-06-14T10:05:41;100580.94;;;21.64;39.76
692;BME280;70475;50.084;8.576;2023-06-14T10:08:13;100577.44;;;21.68;39.65
692;BME280;70475;50.084;8.576;2023-06-14T10:10:42;100563.88;;;21.63;39.97
692;BME280;70475;50.084;8.576;2023-06-14T10:13:11;100566.31;;;21.65;39.91
692;BME280;70475;50.084;8.576;2023-06-14T10:15:44;100569.72;;;21.77;39.62
692;BME280;70475;50.084;8.576;2023-06-14T10:18:22;100563.84;;;21.90;39.55
692;BME280;70475;50.084;8.576;2023-06-14T10:21:01;100564.38;;;21.92;38.70
692;BME280;70475;50.084;8.576;2023-06-14T10:23:33;100542.09;;;21.85;38.77
692;BME280;70475;50.084;8.576;2023-06-14T10:26:04;100544.09;;;21.94;38.88
692;BME280;70475;50.084;8.576;2023-06-14T10:28:31;100555.28;;;22.08;38.61
692;BME280;70475;50.084;8.576;2023-06-14T10:31:04;100556.41;;;22.12;37.57
692;BME280;70475;50.084;8.576;2023-06-14T10:33:33;100559.59;;;22.04;38.23
692;BME280;70475;50.084;8.576;2023-06-14T10:36:25;100559.59;;;21.99;37.41
692;BME280;70475;50.084;8.576;2023-06-14T10:39:01;100564.69;;;21.95;37.53
692;BME280;70475;50.084;8.576;2023-06-14T10:41:34;100557.41;;;22.01;37.36
692;BME280;70475;50.084;8.576;2023-06-14T10:44:33;100555.06;;;22.14;37.58
692;BME280;70475;50.084;8.576;2023-06-14T10:47:07;100563.25;;;22.19;38.21
692;BME280;70475;50.084;8.576;2023-06-14T10:49:41;100553.81;;;22.32;39.45
692;BME280;70475;50.084;8.576;2023-06-14T10:52:12;100556.63;;;22.47;37.95
692;BME280;70475;50.084;8.576;2023-06-14T10:55:02;100555.41;;;22.70;39.25
692;BME280;70475;50.084;8.576;2023-06-14T10:57:33;100551.69;;;22.96;37.88
692;BME280;70475;50.084;8.576;2023-06-14T11:00:16;100560.63;;;22.91;36.85
692;BME280;70475;50.084;8.576;2023-06-14T11:02:51;100553.78;;;22.74;38.33
692;BME280;70475;50.084;8.576;2023-06-14T11:05:24;100564.97;;;22.92;37.74
692;BME280;70475;50.084;8.576;2023-06-14T11:08:27;100564.47;;;23.00;37.37
692;BME280;70475;50.084;8.576;2023-06-14T11:10:58;100565.84;;;22.98;37.08
692;BME280;70475;50.084;8.576;2023-06-14T11:13:26;100554.69;;;22.94;36.45
692;BME280;70475;50.084;8.576;2023-06-14T11:15:57;100550.31;;;22.88;37.45
692;BME280;70475;50.084;8.576;2023-06-14T11:18:25;100560.91;;;22.90;37.26
692;BME280;70475;50.084;8.576;2023-06-14T11:20:54;100559.63;;;23.12;37.32
692;BME280;70475;50.084;8.576;2023-06-14T11:23:23;100558.81;;;23.17;36.58
692;BME280;70475;50.084;8.576;2023-06-14T11:25:50;100552.28;;;23.13;36.99
692;BME280;70475;50.084;8.576;2023-06-14T11:28:18;100554.72;;;23.14;37.22
692;BME280;70475;50.084;8.576;2023-06-14T11:30:48;100556.38;;;23.15;37.06
692;BME280;70475;50.084;8.576;2023-06-14T11:33:18;100553.38;;;23.07;36.71
692;BME280;70475;50.084;8.576;2023-06-14T11:35:46;100563.94;;;23.03;36.22
692;BME280;70475;50.084;8.576;2023-06-14T11:38:14;100558.53;;;23.13;35.90
692;BME280;70475;50.084;8.576;2023-06-14T11:40:43;100557.19;;;23.16;35.62
692;BME280;70475;50.084;8.576;2023-06-14T11:43:10;100551.50;;;23.22;35.99
692;BME280;70475;50.084;8.576;2023-06-14T11:45:40;100553.72;;;23.35;35.44
692;BME280;70475;50.084;8.576;2023-06-14T11:48:09;100545.03;;;23.43;35.34
692;BME280;70475;50.084;8.576;2023-06-14T11:50:37;100546.69;;;23.49;35.99
692;BME280;70475;50.084;8.576;2023-06-14T11:53:05;100545.31;;;23.52;35.73
692;BME280;70475;50.084;8.576;2023-06-14T11:55:36;100545.03;;;23.38;36.35
692;BME280;70475;50.084;8.576;2023-06-14T11:58:05;100553.19;;;23.33;36.45
692;BME280;70475;50.084;8.576;2023-06-14T12:00:35;100555.06;;;23.38;35.85
692;BME280;70475;50.084;8.576;2023-06-14T12:03:03;100546.41;;;23.46;34.96
692;BME280;70475;50.084;8.576;2023-06-14T12:05:33;100544.50;;;23.56;34.55
692;BME280;70475;50.084;8.576;2023-06-14T12:08:03;100550.78;;;23.67;35.00
692;BME280;70475;50.084;8.576;2023-06-14T12:10:40;100546.69;;;23.59;34.06
692;BME280;70475;50.084;8.576;2023-06-14T12:13:11;100557.56;;;23.49;34.40
692;BME280;70475;50.084;8.576;2023-06-14T12:15:38;100549.38;;;23.54;34.12
692;BME280;70475;50.084;8.576;2023-06-14T12:18:06;100549.69;;;23.58;33.88
692;BME280;70475;50.084;8.576;2023-06-14T12:20:35;100555.38;;;23.56;33.78
692;BME280;70475;50.084;8.576;2023-06-14T12:23:03;100548.03;;;23.47;33.72
692;BME280;70475;50.084;8.576;2023-06-14T12:25:32;100543.69;;;23.61;33.35
692;BME280;70475;50.084;8.576;2023-06-14T12:28:04;100541.25;;;23.74;33.25
692;BME280;70475;50.084;8.576;2023-06-14T12:30:35;100538.53;;;23.94;33.11
692;BME280;70475;50.084;8.576;2023-06-14T12:33:03;100540.44;;;23.99;33.38
692;BME280;70475;50.084;8.576;2023-06-14T12:35:32;100544.22;;;24.23;34.05
692;BME280;70475;50.084;8.576;2023-06-14T12:38:00;100549.63;;;24.28;33.10
692;BME280;70475;50.084;8.576;2023-06-14T12:40:28;100548.84;;;24.07;33.47
692;BME280;70475;50.084;8.576;2023-06-14T12:42:55;100545.63;;;24.05;32.48
692;BME280;70475;50.084;8.576;2023-06-14T12:45:23;100542.88;;;24.00;33.19
692;BME280;70475;50.084;8.576;2023-06-14T12:47:51;100544.53;;;23.96;33.68
692;BME280;70475;50.084;8.576;2023-06-14T12:50:19;100549.41;;;23.79;33.15
692;BME280;70475;50.084;8.576;2023-06-14T12:52:51;100544.78;;;23.65;34.62
692;BME280;70475;50.084;8.576;2023-06-14T12:55:19;100544.50;;;23.76;32.44
692;BME280;70475;50.084;8.576;2023-06-14T12:57:46;100550.25;;;23.95;33.09
692;BME280;70475;50.084;8.576;2023-06-14T13:00:16;100543.66;;;24.16;33.75
692;BME280;70475;50.084;8.576;2023-06-14T13:02:44;100540.66;;;24.17;32.63
692;BME280;70475;50.084;8.576;2023-06-14T13:05:14;100533.84;;;24.35;32.36
692;BME280;70475;50.084;8.576;2023-06-14T13:07:41;100540.59;;;24.53;32.10
692;BME280;70475;50.084;8.576;2023-06-14T13:10:09;100543.00;;;24.59;31.17
692;BME280;70475;50.084;8.576;2023-06-14T13:12:37;100539.44;;;24.79;30.95
692;BME280;70475;50.084;8.576;2023-06-14T13:15:06;100540.41;;;25.03;30.78
692;BME280;70475;50.084;8.576;2023-06-14T13:17:34;100548.03;;;24.96;30.49
692;BME280;70475;50.084;8.576;2023-06-14T13:20:05;100545.16;;;24.82;31.01
692;BME280;70475;50.084;8.576;2023-06-14T13:22:35;100543.25;;;24.73;32.37